Time;durP1;ratioP1;P1;durP2;ratioP2;P2;SDS_P1;SDS_P2;PMS_P1;PMS_P2;Temp;Humidity;BMP_temperature;BMP_pressure;BME280_temperature;BME280_humidity;BME280_pressure;Samples;Min_cycle;Max_cycle;Signal;HPM_P1;HPM_P2
2022/12/02 00:00:00;;;;;;;23.20;14.77;;;3.90;99.90;;;;;;5072228;28;20574;-69
2022/12/02 00:02:34;;;;;;;25.97;16.37;;;3.90;99.90;;;;;;5072082;28;20273;-67
2022/12/02 00:05:11;;;;;;;22.57;14.73;;;3.90;99.90;;;;;;5071890;28;20204;-67
2022/12/02 00:07:40;;;;;;;25.70;17.00;;;4.00;99.90;;;;;;5072170;28;20731;-65
2022/12/02 00:10:23;;;;;;;22.37;15.17;;;4.00;99.90;;;;;;5072316;28;20645;-68
2022/12/02 00:12:52;;;;;;;23.13;15.50;;;4.00;99.90;;;;;;5072666;28;20207;-64
2022/12/02 00:15:42;;;;;;;21.30;14.77;;;4.00;99.90;;;;;;5072259;28;20197;-69
2022/12/02 00:18:13;;;;;;;25.33;15.23;;;4.10;99.90;;;;;;4990501;28;20252;-66
2022/12/02 00:20:43;;;;;;;22.30;14.70;;;4.20;99.90;;;;;;4990291;28;20209;-65
2022/12/02 00:23:11;;;;;;;24.33;15.43;;;4.20;99.90;;;;;;4990433;28;20782;-64
2022/12/02 00:25:41;;;;;;;20.63;14.97;;;4.30;99.90;;;;;;4990108;28;20205;-64
2022/12/02 00:28:10;;;;;;;20.77;13.90;;;4.40;99.90;;;;;;4990356;28;20204;-65
2022/12/02 00:30:39;;;;;;;22.77;14.87;;;4.40;99.90;;;;;;4990249;28;20193;-66
2022/12/02 00:33:08;;;;;;;22.60;15.83;;;4.30;99.90;;;;;;4974098;28;20493;-63
2022/12/02 00:35:38;;;;;;;22.93;15.73;;;4.20;99.90;;;;;;4989831;28;20572;-66
2022/12/02 00:38:07;;;;;;;21.63;14.33;;;4.20;99.90;;;;;;4989418;28;20645;-66
2022/12/02 00:40:35;;;;;;;19.07;13.17;;;4.20;99.90;;;;;;4989180;28;20229;-69
2022/12/02 00:48:47;;;;;;;25.17;15.27;;;4.00;99.90;;;;;;4951384;29;20311;-66
2022/12/02 00:51:17;;;;;;;23.23;14.93;;;4.00;99.90;;;;;;4950955;29;20219;-66
2022/12/02 00:53:46;;;;;;;22.40;15.23;;;4.00;99.90;;;;;;4951204;29;20202;-67
2022/12/02 00:56:15;;;;;;;26.53;15.63;;;4.00;99.90;;;;;;5022800;28;20246;-70
2022/12/02 00:58:43;;;;;;;23.33;15.33;;;3.90;99.90;;;;;;5029269;28;20199;-65
2022/12/02 01:01:12;;;;;;;24.20;15.00;;;3.90;99.90;;;;;;5028727;28;20215;-69
2022/12/02 01:03:41;;;;;;;27.67;17.07;;;3.90;99.90;;;;;;5029025;28;20206;-65
2022/12/02 01:06:13;;;;;;;27.97;17.73;;;3.90;99.90;;;;;;5018871;28;20231;-68
2022/12/02 01:08:43;;;;;;;31.00;16.57;;;3.90;99.90;;;;;;5049067;28;20208;-69
2022/12/02 01:11:12;;;;;;;29.07;17.07;;;3.90;99.90;;;;;;5049381;28;20212;-66
2022/12/02 01:13:42;;;;;;;28.60;18.40;;;3.90;99.90;;;;;;5033356;28;20213;-69
2022/12/02 01:16:11;;;;;;;31.80;18.23;;;3.90;99.90;;;;;;5032847;28;20294;-67
2022/12/02 01:18:39;;;;;;;28.13;17.03;;;3.90;99.90;;;;;;5049711;28;20199;-69
2022/12/02 01:21:07;;;;;;;29.03;19.03;;;3.90;99.90;;;;;;5033287;28;20201;-66
2022/12/02 01:23:36;;;;;;;27.77;16.20;;;4.00;99.90;;;;;;5065855;28;20240;-65
2022/12/02 01:26:06;;;;;;;22.93;15.17;;;4.10;99.90;;;;;;5082312;28;20222;-65
2022/12/02 01:28:34;;;;;;;22.87;14.27;;;4.10;99.90;;;;;;5092940;28;20191;-66
2022/12/02 01:31:03;;;;;;;22.73;14.57;;;4.00;99.90;;;;;;5091891;28;20276;-65
2022/12/02 01:33:31;;;;;;;24.23;14.53;;;4.10;99.90;;;;;;5073215;28;20596;-71
2022/12/02 01:35:59;;;;;;;25.63;16.07;;;4.10;99.90;;;;;;5084454;28;20199;-71
2022/12/02 01:38:28;;;;;;;25.37;16.03;;;4.00;99.90;;;;;;5091612;28;20594;-68
2022/12/02 01:40:56;;;;;;;25.93;16.37;;;4.00;99.90;;;;;;5070528;28;20211;-73
2022/12/02 01:43:27;;;;;;;24.43;15.57;;;4.00;99.90;;;;;;5090849;28;20227;-73
2022/12/02 01:45:57;;;;;;;26.53;16.27;;;4.00;99.90;;;;;;5073721;28;20260;-73
2022/12/02 01:48:27;;;;;;;26.23;15.97;;;4.20;99.90;;;;;;5073836;28;20212;-69
2022/12/02 01:50:55;;;;;;;23.47;15.83;;;4.30;99.90;;;;;;5089856;28;20213;-69
2022/12/02 01:53:24;;;;;;;23.77;14.87;;;4.20;99.90;;;;;;5073669;28;20299;-66
2022/12/02 01:55:53;;;;;;;26.67;16.63;;;4.30;99.90;;;;;;5091726;28;20201;-68
2022/12/02 01:58:27;;;;;;;21.83;14.33;;;4.30;99.90;;;;;;5091750;28;20200;-70
2022/12/02 02:00:56;;;;;;;20.83;15.47;;;4.40;99.90;;;;;;5073379;28;20196;-71
2022/12/02 02:03:25;;;;;;;21.20;13.60;;;4.50;99.90;;;;;;5091553;28;20214;-68
2022/12/02 02:05:54;;;;;;;25.83;15.23;;;4.50;99.90;;;;;;5091267;28;20234;-74
2022/12/02 02:08:23;;;;;;;19.47;13.77;;;4.50;99.90;;;;;;5072658;28;20605;-72
2022/12/02 02:10:51;;;;;;;21.57;14.53;;;4.50;99.90;;;;;;5073631;28;20203;-70
2022/12/02 02:13:20;;;;;;;20.93;15.20;;;4.40;99.90;;;;;;5073251;28;20209;-72
2022/12/02 02:15:49;;;;;;;46.20;26.50;;;4.50;99.90;;;;;;5089468;28;20221;-74
2022/12/02 02:18:18;;;;;;;45.10;30.17;;;4.50;99.90;;;;;;5092358;28;20568;-74
2022/12/02 02:20:46;;;;;;;29.43;19.77;;;4.50;99.90;;;;;;5091501;28;20367;-65
2022/12/02 02:23:20;;;;;;;23.20;16.07;;;4.60;99.90;;;;;;5073185;28;20231;-68
2022/12/02 02:25:52;;;;;;;23.90;15.63;;;4.60;99.90;;;;;;5091448;28;20198;-72
2022/12/02 02:28:24;;;;;;;22.43;14.67;;;4.50;99.90;;;;;;5076994;28;20285;-66
2022/12/02 02:30:55;;;;;;;21.80;14.80;;;4.50;99.90;;;;;;5077123;28;20211;-66
2022/12/02 02:33:30;;;;;;;22.17;14.97;;;4.60;99.90;;;;;;5077306;28;20199;-66
2022/12/02 02:35:59;;;;;;;32.67;20.17;;;4.60;99.90;;;;;;5095306;28;20191;-65
2022/12/02 02:38:30;;;;;;;24.63;15.40;;;4.60;99.90;;;;;;5076695;28;20209;-70
2022/12/02 02:41:00;;;;;;;22.83;14.30;;;4.60;99.90;;;;;;5071658;28;20293;-66
2022/12/02 02:43:30;;;;;;;31.87;19.40;;;4.50;99.90;;;;;;5057539;28;20239;-65
2022/12/02 02:45:59;;;;;;;27.40;17.67;;;4.60;99.90;;;;;;5056993;28;20281;-72
2022/12/02 02:48:35;;;;;;;23.30;15.03;;;4.60;99.90;;;;;;5056721;28;20203;-65
2022/12/02 02:51:04;;;;;;;24.77;15.53;;;4.50;99.90;;;;;;5073361;28;20204;-68
2022/12/02 02:53:36;;;;;;;26.30;16.27;;;4.50;99.90;;;;;;5056991;28;20290;-68
2022/12/02 02:56:07;;;;;;;24.67;13.80;;;4.50;99.90;;;;;;5056916;28;20201;-71
2022/12/02 02:58:37;;;;;;;21.97;14.67;;;4.50;99.90;;;;;;5056697;28;20214;-67
2022/12/02 03:01:11;;;;;;;22.80;15.07;;;4.50;99.90;;;;;;5056490;28;20201;-69
2022/12/02 03:03:42;;;;;;;22.27;14.47;;;4.50;99.90;;;;;;5056527;28;20426;-69
2022/12/02 03:06:12;;;;;;;23.80;15.20;;;4.60;99.90;;;;;;5056978;28;20238;-65
2022/12/02 03:08:46;;;;;;;23.37;14.33;;;4.60;99.90;;;;;;5073910;28;20207;-64
2022/12/02 03:11:15;;;;;;;21.80;14.10;;;4.70;99.90;;;;;;5092528;28;20198;-65
2022/12/02 03:13:46;;;;;;;22.93;15.27;;;4.70;99.90;;;;;;5094679;28;20292;-65
2022/12/02 03:16:16;;;;;;;20.97;14.47;;;4.70;99.90;;;;;;5094511;28;20675;-64
2022/12/02 03:18:46;;;;;;;24.27;16.30;;;4.70;99.90;;;;;;5094652;28;20199;-67
2022/12/02 03:21:17;;;;;;;23.63;15.67;;;4.70;99.90;;;;;;5094650;28;20191;-68
2022/12/02 03:23:48;;;;;;;22.03;14.53;;;4.70;99.90;;;;;;5094625;28;20234;-67
2022/12/02 03:26:17;;;;;;;24.50;16.70;;;4.70;99.90;;;;;;5094556;28;20668;-67
2022/12/02 03:28:46;;;;;;;24.57;17.30;;;4.80;99.90;;;;;;5094496;28;20203;-67
2022/12/02 03:31:15;;;;;;;26.73;17.47;;;4.80;99.90;;;;;;5093377;28;20200;-65
2022/12/02 03:33:44;;;;;;;25.03;16.97;;;4.70;99.90;;;;;;5093810;28;20229;-66
2022/12/02 03:36:12;;;;;;;24.33;16.40;;;4.70;99.90;;;;;;5094733;28;20243;-66
2022/12/02 03:38:41;;;;;;;25.23;16.40;;;4.60;99.90;;;;;;5075799;28;20558;-65
2022/12/02 03:41:12;;;;;;;25.93;16.60;;;4.60;99.90;;;;;;5094085;28;20197;-67
2022/12/02 03:43:40;;;;;;;24.67;16.37;;;4.60;99.90;;;;;;5093947;28;20298;-65
2022/12/02 03:46:09;;;;;;;21.73;15.50;;;4.70;99.90;;;;;;5093739;28;20200;-66
2022/12/02 03:48:39;;;;;;;26.73;16.70;;;4.60;99.90;;;;;;5093987;28;20191;-66
2022/12/02 03:51:08;;;;;;;23.90;15.80;;;4.60;99.90;;;;;;5094059;28;20249;-70
2022/12/02 03:53:37;;;;;;;24.53;16.73;;;4.50;99.90;;;;;;5094030;28;20289;-65
2022/12/02 03:56:07;;;;;;;22.20;15.03;;;4.40;99.90;;;;;;5093845;28;20195;-65
2022/12/02 03:58:39;;;;;;;23.70;15.80;;;4.30;99.90;;;;;;5092324;28;20213;-66
2022/12/02 04:01:08;;;;;;;26.47;17.17;;;4.30;99.90;;;;;;5094120;28;20194;-69
2022/12/02 04:03:36;;;;;;;25.67;16.33;;;4.30;99.90;;;;;;5093548;28;20248;-65
2022/12/02 04:06:04;;;;;;;22.97;16.80;;;4.30;99.90;;;;;;5093412;28;20247;-65
2022/12/02 04:08:33;;;;;;;24.73;16.87;;;4.40;99.90;;;;;;5093584;28;20193;-68
2022/12/02 04:11:01;;;;;;;25.73;16.47;;;4.50;99.90;;;;;;5093601;28;20196;-69
2022/12/02 04:13:30;;;;;;;24.80;16.47;;;4.50;99.90;;;;;;5093344;28;20210;-66
2022/12/02 04:15:59;;;;;;;29.97;18.23;;;4.60;99.90;;;;;;5093334;28;20190;-71
2022/12/02 04:18:28;;;;;;;22.77;16.57;;;4.70;99.90;;;;;;5093370;28;20252;-73
2022/12/02 04:20:57;;;;;;;30.27;17.30;;;4.70;99.90;;;;;;5093385;28;20736;-69
2022/12/02 04:23:25;;;;;;;30.57;18.97;;;4.70;99.90;;;;;;5091383;28;20218;-65
2022/12/02 04:25:54;;;;;;;26.27;17.90;;;4.60;99.90;;;;;;5093903;28;20556;-66
2022/12/02 04:28:22;;;;;;;27.77;18.43;;;4.60;99.90;;;;;;5092947;28;20214;-67
2022/12/02 04:30:50;;;;;;;28.17;19.40;;;4.70;99.90;;;;;;5093262;28;20206;-67
2022/12/02 04:33:20;;;;;;;35.27;19.73;;;4.70;99.90;;;;;;5093148;28;20252;-69
2022/12/02 04:35:48;;;;;;;26.00;17.37;;;4.70;99.90;;;;;;5093156;28;20665;-66
2022/12/02 04:38:17;;;;;;;29.07;19.47;;;4.80;99.90;;;;;;5093173;28;20200;-73
2022/12/02 04:40:45;;;;;;;34.03;21.33;;;4.70;99.90;;;;;;5090546;28;20210;-67
2022/12/02 04:43:13;;;;;;;33.43;21.13;;;4.60;99.90;;;;;;5092099;28;20192;-66
2022/12/02 04:45:42;;;;;;;29.53;19.00;;;4.60;99.90;;;;;;5092412;28;20195;-67
2022/12/02 04:48:10;;;;;;;29.13;18.80;;;4.50;99.90;;;;;;5091984;28;20200;-66
2022/12/02 04:50:40;;;;;;;27.03;19.10;;;4.50;99.90;;;;;;5091606;28;20234;-70
2022/12/02 04:53:08;;;;;;;30.87;20.93;;;4.60;99.90;;;;;;5091721;28;20573;-66
2022/12/02 04:55:36;;;;;;;27.37;19.77;;;4.60;99.90;;;;;;5091742;28;20204;-64
2022/12/02 04:58:05;;;;;;;31.27;22.80;;;4.70;99.90;;;;;;5092003;28;20554;-70
2022/12/02 05:00:33;;;;;;;35.13;25.70;;;4.80;99.90;;;;;;5092146;28;20226;-70
2022/12/02 05:03:01;;;;;;;35.07;23.00;;;4.90;99.90;;;;;;5091780;28;20684;-65
2022/12/02 05:05:30;;;;;;;29.73;20.50;;;4.90;99.90;;;;;;5091357;28;20595;-68
2022/12/02 05:07:59;;;;;;;30.57;20.53;;;4.90;99.90;;;;;;5091517;28;20594;-68
2022/12/02 05:10:28;;;;;;;32.93;20.53;;;4.90;99.90;;;;;;5091999;28;20334;-66
2022/12/02 05:12:56;;;;;;;33.33;20.60;;;4.90;99.90;;;;;;5091494;28;20203;-66
2022/12/02 05:15:24;;;;;;;33.97;20.60;;;4.90;99.90;;;;;;5091400;28;20207;-65
2022/12/02 05:17:53;;;;;;;30.63;19.93;;;4.90;99.90;;;;;;5091435;28;20203;-66
2022/12/02 05:20:21;;;;;;;32.43;21.60;;;4.90;99.90;;;;;;5091393;28;20205;-66
2022/12/02 05:22:50;;;;;;;33.23;20.43;;;4.90;99.90;;;;;;5091253;28;20202;-71
2022/12/02 05:25:19;;;;;;;41.93;22.37;;;4.90;99.90;;;;;;5091380;28;20221;-65
2022/12/02 05:27:48;;;;;;;35.87;22.23;;;4.90;99.90;;;;;;5091643;28;20196;-70
2022/12/02 05:30:16;;;;;;;34.33;21.13;;;5.00;99.90;;;;;;5072988;28;20212;-67
2022/12/02 05:32:44;;;;;;;31.40;19.53;;;5.00;99.90;;;;;;5091070;28;20590;-69
2022/12/02 05:35:13;;;;;;;33.03;22.77;;;5.00;99.90;;;;;;5091115;28;20206;-67
2022/12/02 05:37:41;;;;;;;34.20;21.30;;;5.00;99.90;;;;;;5091066;28;20195;-65
2022/12/02 05:40:10;;;;;;;35.93;23.20;;;5.10;99.90;;;;;;5091922;28;20200;-72
2022/12/02 05:42:41;;;;;;;38.53;23.73;;;5.10;99.90;;;;;;5091826;28;20657;-70
2022/12/02 05:45:16;;;;;;;35.03;22.80;;;5.10;99.90;;;;;;5091805;28;20233;-72
2022/12/02 05:47:47;;;;;;;38.67;23.00;;;5.10;99.90;;;;;;5091596;28;20194;-66
2022/12/02 05:50:15;;;;;;;40.27;23.90;;;5.10;99.90;;;;;;5092156;28;20189;-71
2022/12/02 05:52:51;;;;;;;44.33;27.13;;;5.10;99.90;;;;;;5091905;28;20191;-70
2022/12/02 05:55:21;;;;;;;79.80;55.23;;;5.00;99.90;;;;;;5091658;28;20673;-70
2022/12/02 05:57:51;;;;;;;87.30;49.97;;;5.00;99.90;;;;;;5091879;28;20216;-66
2022/12/02 06:00:21;;;;;;;61.53;37.30;;;5.00;99.90;;;;;;5091733;28;20238;-65
2022/12/02 06:02:52;;;;;;;90.87;50.57;;;5.00;99.90;;;;;;5094696;28;20195;-69
2022/12/02 06:05:23;;;;;;;36.00;23.17;;;5.00;99.90;;;;;;5095772;28;20225;-67
2022/12/02 06:07:59;;;;;;;38.60;20.37;;;5.00;99.90;;;;;;5095597;28;20294;-68
2022/12/02 06:10:29;;;;;;;27.10;15.20;;;4.90;99.90;;;;;;5077822;28;20225;-69
2022/12/02 06:13:02;;;;;;;28.67;17.67;;;4.70;99.90;;;;;;5095620;28;20201;-66
2022/12/02 06:15:36;;;;;;;29.37;16.73;;;4.60;99.90;;;;;;5095507;28;20229;-69
2022/12/02 06:18:14;;;;;;;29.17;15.23;;;4.60;99.90;;;;;;5095477;28;20214;-66
2022/12/02 06:20:43;;;;;;;26.93;15.50;;;4.50;99.90;;;;;;5095646;28;20273;-66
2022/12/02 06:23:15;;;;;;;29.53;16.63;;;4.40;99.90;;;;;;5095513;28;20268;-67
2022/12/02 06:25:45;;;;;;;21.47;14.37;;;4.50;99.90;;;;;;5095274;28;20236;-69
2022/12/02 06:28:25;;;;;;;28.10;15.50;;;4.50;99.90;;;;;;5077377;28;20608;-67
2022/12/02 06:30:56;;;;;;;19.10;12.77;;;4.50;99.90;;;;;;5095469;28;20193;-66
2022/12/02 06:33:28;;;;;;;23.93;14.53;;;4.40;99.90;;;;;;5095247;28;20199;-65
2022/12/02 06:35:58;;;;;;;24.63;14.47;;;4.40;99.90;;;;;;5095253;28;20190;-68
2022/12/02 06:38:33;;;;;;;22.30;14.60;;;4.40;99.90;;;;;;5095075;28;20198;-67
2022/12/02 06:41:14;;;;;;;20.50;12.93;;;4.40;99.90;;;;;;5095161;28;20206;-72
2022/12/02 06:45:03;;;;;;;25.73;16.50;;;4.40;99.90;;;;;;5095157;28;20702;-65
2022/12/02 06:46:34;;;;;;;20.80;13.00;;;4.40;99.90;;;;;;5094848;28;20296;-67
2022/12/02 06:49:14;;;;;;;23.47;15.37;;;4.40;99.90;;;;;;5094954;28;20191;-67
2022/12/02 06:51:42;;;;;;;21.33;12.13;;;4.40;99.90;;;;;;5094860;28;20206;-72
2022/12/02 06:54:16;;;;;;;22.10;13.67;;;4.30;99.90;;;;;;5076536;28;20202;-68
2022/12/02 06:56:44;;;;;;;22.63;14.50;;;4.40;99.90;;;;;;5094852;28;20196;-69
2022/12/02 06:59:16;;;;;;;26.70;15.53;;;4.40;99.90;;;;;;5094788;28;20206;-64
2022/12/02 07:01:44;;;;;;;26.03;15.93;;;4.40;99.90;;;;;;5094620;28;20209;-70
2022/12/02 07:04:33;;;;;;;24.57;15.47;;;4.40;99.90;;;;;;5094703;28;20631;-65
2022/12/02 07:07:13;;;;;;;27.97;17.07;;;4.40;99.90;;;;;;5094414;28;20715;-71
2022/12/02 07:09:44;;;;;;;30.43;16.97;;;4.50;99.90;;;;;;5094687;28;20193;-68
2022/12/02 07:12:16;;;;;;;34.80;20.53;;;4.60;99.90;;;;;;5094056;28;20217;-72
2022/12/02 07:14:49;;;;;;;23.37;14.90;;;4.70;99.90;;;;;;5094647;28;20226;-70
2022/12/02 07:17:23;;;;;;;25.83;15.50;;;4.70;99.90;;;;;;5094597;28;20199;-67
2022/12/02 07:19:58;;;;;;;26.83;16.33;;;4.60;99.90;;;;;;5094485;28;20231;-66
2022/12/02 07:22:31;;;;;;;31.10;16.33;;;4.60;99.90;;;;;;5094314;28;20236;-65
2022/12/02 07:25:27;;;;;;;34.67;18.00;;;4.70;99.90;;;;;;5094454;28;20630;-71
2022/12/02 07:27:55;;;;;;;32.83;17.80;;;4.60;99.90;;;;;;4992574;28;20209;-69
2022/12/02 07:30:29;;;;;;;30.30;16.97;;;4.60;99.90;;;;;;4992375;28;20247;-70
2022/12/02 07:32:58;;;;;;;37.47;20.13;;;4.50;99.90;;;;;;4992384;28;20263;-69
2022/12/02 07:35:26;;;;;;;32.10;19.07;;;4.50;99.90;;;;;;4992282;28;20204;-67
2022/12/02 07:37:56;;;;;;;34.57;19.30;;;4.50;99.90;;;;;;4992335;28;20211;-71
2022/12/02 07:40:26;;;;;;;34.17;21.23;;;4.40;99.90;;;;;;4976109;28;20207;-67
2022/12/02 07:42:54;;;;;;;34.70;19.77;;;4.40;99.90;;;;;;4992199;28;20253;-66
2022/12/02 07:45:22;;;;;;;33.30;19.00;;;4.50;99.90;;;;;;4992183;28;20237;-68
2022/12/02 07:47:52;;;;;;;39.37;20.10;;;4.60;99.90;;;;;;4975908;28;20291;-71
2022/12/02 07:50:21;;;;;;;33.67;19.90;;;4.60;99.90;;;;;;4992189;28;20204;-67
2022/12/02 07:52:49;;;;;;;41.60;23.53;;;4.70;99.90;;;;;;4992077;28;20258;-72
2022/12/02 07:55:18;;;;;;;37.17;20.90;;;4.70;99.90;;;;;;4992168;28;20200;-71
2022/12/02 07:57:53;;;;;;;53.07;27.47;;;4.90;99.90;;;;;;4991803;28;20687;-71
2022/12/02 08:00:22;;;;;;;49.17;25.30;;;4.80;99.90;;;;;;4992035;28;20205;-72
2022/12/02 08:02:54;;;;;;;44.83;23.57;;;4.90;99.90;;;;;;4991932;28;20249;-73
2022/12/02 08:05:23;;;;;;;42.47;23.97;;;4.90;99.90;;;;;;5069052;28;20220;-67
2022/12/02 08:07:51;;;;;;;41.93;23.47;;;4.80;99.90;;;;;;5093615;28;20233;-71
2022/12/02 08:10:20;;;;;;;38.63;22.17;;;4.80;99.90;;;;;;5093498;28;20687;-68
2022/12/02 08:12:48;;;;;;;90.70;45.27;;;4.80;99.90;;;;;;5093419;28;20560;-68
2022/12/02 08:15:16;;;;;;;50.53;27.30;;;4.80;99.90;;;;;;5093295;28;20212;-73
2022/12/02 08:17:45;;;;;;;45.03;22.23;;;4.90;99.90;;;;;;5093177;28;20202;-67
2022/12/02 08:20:14;;;;;;;70.27;36.67;;;4.90;99.90;;;;;;5093243;28;20195;-73
2022/12/02 08:22:43;;;;;;;63.13;32.80;;;4.80;99.90;;;;;;5093289;28;20208;-67
2022/12/02 08:25:11;;;;;;;39.80;23.57;;;4.90;99.90;;;;;;5092193;28;20219;-71
2022/12/02 08:27:42;;;;;;;48.17;26.87;;;4.70;99.90;;;;;;5092950;28;20207;-69
2022/12/02 08:30:16;;;;;;;50.30;28.50;;;4.60;99.90;;;;;;5093055;28;20234;-66
2022/12/02 08:32:44;;;;;;;44.30;26.33;;;4.60;99.90;;;;;;5093030;28;20294;-68
2022/12/02 08:35:14;;;;;;;47.60;25.00;;;4.50;99.90;;;;;;5093009;28;20200;-68
2022/12/02 08:37:42;;;;;;;44.00;25.13;;;4.40;99.90;;;;;;5093201;28;20229;-71
2022/12/02 08:40:11;;;;;;;44.50;23.13;;;4.30;99.90;;;;;;5092963;28;20195;-71
2022/12/02 08:42:41;;;;;;;43.27;22.60;;;4.20;99.90;;;;;;5092849;28;20201;-66
2022/12/02 08:45:09;;;;;;;44.23;22.80;;;4.20;99.90;;;;;;5092909;28;20198;-66
2022/12/02 08:47:38;;;;;;;52.63;28.50;;;4.20;99.90;;;;;;5092778;28;20203;-68
2022/12/02 08:50:07;;;;;;;46.73;23.43;;;4.30;99.90;;;;;;5092865;28;20199;-70
2022/12/02 08:52:37;;;;;;;50.53;24.40;;;4.30;99.90;;;;;;5092788;28;20199;-71
2022/12/02 08:55:06;;;;;;;49.57;24.53;;;4.20;99.90;;;;;;5074526;28;20619;-74
2022/12/02 08:57:34;;;;;;;42.20;23.43;;;4.10;99.90;;;;;;5092694;28;20218;-65
2022/12/02 09:00:04;;;;;;;40.00;21.73;;;4.20;99.90;;;;;;5092486;28;20209;-65
2022/12/02 09:02:33;;;;;;;43.90;24.33;;;4.20;99.90;;;;;;5092431;28;20210;-69
2022/12/02 09:05:02;;;;;;;44.60;23.03;;;4.30;99.90;;;;;;5092452;28;20564;-71
2022/12/02 09:07:30;;;;;;;45.37;23.07;;;4.40;99.90;;;;;;5092134;28;20237;-69
2022/12/02 09:10:00;;;;;;;39.83;20.57;;;4.30;99.90;;;;;;5092552;28;20231;-70
2022/12/02 09:12:28;;;;;;;47.20;22.53;;;4.20;99.90;;;;;;5074059;28;20206;-67
2022/12/02 09:14:58;;;;;;;46.57;23.53;;;4.10;99.90;;;;;;5092278;28;20203;-69
2022/12/02 09:17:26;;;;;;;44.13;22.67;;;4.20;99.90;;;;;;5092184;28;20291;-71
2022/12/02 09:19:54;;;;;;;44.23;22.37;;;4.30;99.90;;;;;;5092264;28;20195;-68
2022/12/02 09:22:23;;;;;;;39.20;20.17;;;4.50;99.90;;;;;;5092065;28;20697;-69
2022/12/02 09:24:51;;;;;;;42.83;21.33;;;4.50;99.90;;;;;;5092271;28;20206;-69
2022/12/02 09:27:21;;;;;;;44.10;22.50;;;4.50;99.90;;;;;;5092225;28;20244;-68
2022/12/02 09:29:49;;;;;;;41.47;21.43;;;4.50;99.90;;;;;;5092273;28;20249;-67
2022/12/02 09:32:17;;;;;;;43.27;21.73;;;4.40;99.90;;;;;;5073532;28;20204;-70
2022/12/02 09:34:46;;;;;;;40.37;20.23;;;4.30;99.90;;;;;;5091770;28;20202;-70
2022/12/02 09:37:14;;;;;;;41.40;20.60;;;4.20;99.90;;;;;;5092135;28;20213;-69
2022/12/02 09:39:42;;;;;;;43.00;20.43;;;4.30;99.90;;;;;;5091956;28;20196;-67
2022/12/02 09:42:12;;;;;;;41.73;21.37;;;4.50;99.90;;;;;;5091949;28;20735;-68
2022/12/02 09:44:44;;;;;;;38.00;20.10;;;4.60;99.90;;;;;;5091927;28;20188;-70
2022/12/02 09:47:15;;;;;;;35.43;19.93;;;4.70;99.90;;;;;;5091763;28;20334;-69
2022/12/02 09:49:44;;;;;;;34.87;19.07;;;4.70;99.90;;;;;;5091762;28;20204;-68
2022/12/02 09:52:17;;;;;;;35.70;19.07;;;4.70;99.90;;;;;;5091708;28;20699;-69
2022/12/02 09:54:53;;;;;;;37.90;20.30;;;4.60;99.90;;;;;;5091807;28;20207;-72
2022/12/02 09:57:26;;;;;;;39.20;20.13;;;4.50;99.90;;;;;;5091928;28;20615;-73
2022/12/02 09:59:56;;;;;;;35.10;19.40;;;4.60;99.90;;;;;;5091788;28;20291;-72
2022/12/02 10:02:28;;;;;;;38.53;19.33;;;4.60;99.90;;;;;;5091667;28;20292;-74
2022/12/02 10:05:02;;;;;;;34.27;18.60;;;4.40;99.90;;;;;;5091783;28;20276;-72
2022/12/02 10:07:31;;;;;;;33.73;19.53;;;4.20;99.90;;;;;;5091368;28;20742;-70
2022/12/02 10:10:00;;;;;;;38.00;20.00;;;4.20;99.90;;;;;;5091613;28;20200;-73
2022/12/02 10:12:28;;;;;;;39.43;18.53;;;4.30;99.90;;;;;;5091630;28;20200;-68
2022/12/02 10:15:00;;;;;;;33.67;16.63;;;4.30;99.90;;;;;;5091584;28;20211;-72
2022/12/02 10:17:28;;;;;;;34.00;19.30;;;4.30;99.90;;;;;;5091632;28;20206;-70
2022/12/02 10:19:57;;;;;;;34.43;19.83;;;4.40;99.90;;;;;;5091402;28;20198;-72
2022/12/02 10:22:25;;;;;;;36.97;20.70;;;4.30;99.90;;;;;;5091624;28;20232;-70
2022/12/02 10:24:54;;;;;;;33.20;18.17;;;4.40;99.90;;;;;;5091480;28;20198;-69
2022/12/02 10:27:27;;;;;;;31.37;17.30;;;4.40;99.90;;;;;;5091392;28;20222;-71
2022/12/02 10:30:14;;;;;;;32.87;18.20;;;4.30;99.90;;;;;;5091368;28;20198;-69
2022/12/02 10:32:54;;;;;;;32.10;17.90;;;4.30;99.90;;;;;;5091402;28;20203;-68
2022/12/02 10:35:22;;;;;;;35.10;17.93;;;4.30;99.90;;;;;;5091579;28;20197;-70
2022/12/02 10:37:50;;;;;;;33.27;16.50;;;4.20;99.90;;;;;;5091503;28;20255;-69
2022/12/02 10:40:21;;;;;;;36.43;17.53;;;4.20;99.90;;;;;;5091798;28;20628;-73
2022/12/02 10:43:09;;;;;;;72.77;40.53;;;4.30;99.90;;;;;;5091614;28;20235;-72
2022/12/02 10:45:39;;;;;;;27.97;16.33;;;4.40;99.90;;;;;;5091322;28;20234;-71
2022/12/02 10:48:13;;;;;;;29.77;16.67;;;4.40;99.90;;;;;;5092781;28;20283;-70
2022/12/02 10:50:41;;;;;;;33.07;17.60;;;4.30;99.90;;;;;;5095399;28;20546;-68
2022/12/02 10:53:14;;;;;;;26.17;15.37;;;4.30;99.90;;;;;;5095020;28;20206;-70
2022/12/02 10:55:43;;;;;;;27.77;16.13;;;4.30;99.90;;;;;;5095144;28;20208;-74
2022/12/02 10:58:13;;;;;;;35.80;19.10;;;4.30;99.90;;;;;;5094776;28;20674;-67
2022/12/02 11:00:42;;;;;;;29.60;16.83;;;4.40;99.90;;;;;;5094981;28;20720;-67
2022/12/02 11:03:12;;;;;;;28.13;16.47;;;4.50;99.90;;;;;;5094528;28;20704;-69
2022/12/02 11:05:41;;;;;;;26.10;16.30;;;4.40;99.90;;;;;;5094680;28;20549;-68
2022/12/02 11:08:20;;;;;;;27.17;15.63;;;4.30;99.90;;;;;;5094642;28;20226;-67
2022/12/02 11:11:05;;;;;;;26.03;14.77;;;4.40;99.90;;;;;;5094767;28;20191;-67
2022/12/02 11:13:52;;;;;;;26.57;15.73;;;4.50;99.90;;;;;;5094625;28;20558;-66
2022/12/02 11:16:59;;;;;;;27.40;14.40;;;4.70;99.90;;;;;;5094812;28;20210;-66
2022/12/02 11:19:45;;;;;;;24.47;13.77;;;4.60;99.90;;;;;;4992636;28;20216;-67
2022/12/02 11:22:46;;;;;;;27.43;14.30;;;4.60;99.90;;;;;;4992818;28;20672;-67
2022/12/02 11:25:52;;;;;;;30.53;15.63;;;4.60;99.90;;;;;;4918796;29;20706;-67
2022/12/02 11:28:37;;;;;;;25.13;14.37;;;4.70;99.90;;;;;;4934577;29;20229;-67
2022/12/02 11:31:23;;;;;;;27.90;15.17;;;4.90;99.90;;;;;;4934643;29;20209;-67
2022/12/02 11:34:31;;;;;;;34.80;18.90;;;4.90;99.90;;;;;;4934625;29;20209;-75
2022/12/02 11:37:49;;;;;;;33.80;19.00;;;5.00;99.60;;;;;;4934452;29;20357;-73
2022/12/02 11:40:59;;;;;;;30.03;16.83;;;5.10;99.00;;;;;;4934603;29;20210;-70
2022/12/02 11:43:55;;;;;;;35.87;16.97;;;5.10;97.90;;;;;;4934428;29;20217;-73
2022/12/02 11:46:40;;;;;;;33.10;19.20;;;4.90;97.80;;;;;;4859262;29;20211;-68
2022/12/02 11:49:40;;;;;;;31.93;18.30;;;5.00;98.40;;;;;;4859077;29;20222;-74
2022/12/02 11:52:19;;;;;;;33.33;18.37;;;4.90;98.10;;;;;;4859020;29;20211;-71
2022/12/02 11:54:53;;;;;;;33.63;18.87;;;4.90;98.80;;;;;;4859100;29;20219;-70
2022/12/02 11:57:26;;;;;;;30.07;18.67;;;4.90;98.80;;;;;;4921459;29;20324;-70
2022/12/02 11:59:55;;;;;;;38.67;21.30;;;5.00;99.50;;;;;;4932759;29;20311;-66
2022/12/02 12:02:25;;;;;;;40.03;22.20;;;5.20;99.70;;;;;;4975314;28;20276;-67
2022/12/02 12:05:03;;;;;;;37.57;20.93;;;5.30;98.50;;;;;;5011450;28;20204;-74
2022/12/02 12:07:46;;;;;;;59.73;35.40;;;5.30;97.00;;;;;;5011107;28;20238;-73
2022/12/02 12:10:31;;;;;;;60.40;40.23;;;5.30;97.00;;;;;;5011331;28;20253;-74
2022/12/02 12:13:19;;;;;;;84.17;49.43;;;5.30;97.90;;;;;;5010981;28;20324;-68
2022/12/02 12:15:58;;;;;;;163.87;100.93;;;5.40;97.90;;;;;;5011343;28;20203;-73
2022/12/02 12:18:50;;;;;;;94.93;58.30;;;5.40;97.80;;;;;;5011015;28;20215;-69
2022/12/02 12:21:41;;;;;;;37.77;22.70;;;5.40;96.30;;;;;;4951087;29;20224;-67
2022/12/02 12:24:29;;;;;;;37.07;21.23;;;5.30;95.40;;;;;;5009814;28;20221;-71
2022/12/02 12:27:11;;;;;;;31.33;18.40;;;5.20;95.30;;;;;;5010956;28;20197;-73
2022/12/02 12:29:40;;;;;;;29.63;18.53;;;5.00;95.50;;;;;;5011166;28;20744;-72
2022/12/02 12:32:10;;;;;;;34.40;19.73;;;4.90;95.90;;;;;;5010952;28;20213;-70
2022/12/02 12:34:38;;;;;;;48.30;22.33;;;4.80;97.20;;;;;;5010946;28;20202;-67
2022/12/02 12:37:07;;;;;;;43.40;22.77;;;4.90;98.20;;;;;;5010923;28;20209;-66
2022/12/02 12:39:35;;;;;;;48.67;23.00;;;5.00;98.40;;;;;;5010815;28;20227;-67
2022/12/02 12:42:05;;;;;;;37.77;20.27;;;5.00;97.20;;;;;;5010895;28;20201;-66
2022/12/02 12:44:33;;;;;;;37.30;20.40;;;5.00;96.00;;;;;;5010854;28;20714;-68
2022/12/02 12:47:03;;;;;;;35.60;19.80;;;4.90;96.00;;;;;;5010711;28;20202;-68
2022/12/02 12:49:32;;;;;;;41.13;20.70;;;4.90;96.30;;;;;;5010698;28;20202;-66
2022/12/02 12:52:00;;;;;;;43.20;23.47;;;4.80;96.30;;;;;;4994294;28;20213;-67
2022/12/02 12:54:29;;;;;;;39.23;23.00;;;4.70;97.30;;;;;;5010668;28;20199;-70
2022/12/02 12:56:57;;;;;;;42.27;23.57;;;4.70;97.90;;;;;;5016157;28;20223;-70
2022/12/02 12:59:27;;;;;;;41.33;21.50;;;4.70;98.40;;;;;;5091820;28;20203;-68
2022/12/02 13:01:56;;;;;;;39.00;20.73;;;4.70;97.50;;;;;;5092604;28;20205;-67
2022/12/02 13:04:24;;;;;;;53.60;24.33;;;4.80;97.60;;;;;;5092438;28;20208;-68